sensor_id;sensor_type;location;lat;lon;timestamp;P1;durP1;ratioP1;P2;durP2;ratioP2
31368;SDS011;18004;48.416;10.066;2023-07-13T00:02:26;18.55;;;10.02;;
31368;SDS011;18004;48.416;10.066;2023-07-13T00:05:00;9.02;;;6.68;;
31368;SDS011;18004;48.416;10.066;2023-07-13T00:07:35;5.40;;;4.05;;
31368;SDS011;18004;48.416;10.066;2023-07-13T00:10:05;4.47;;;3.35;;
31368;SDS011;18004;48.416;10.066;2023-07-13T00:12:33;4.60;;;3.58;;
31368;SDS011;18004;48.416;10.066;2023-07-13T00:15:02;4.65;;;3.35;;
31368;SDS011;18004;48.416;10.066;2023-07-13T00:17:50;5.63;;;3.38;;
31368;SDS011;18004;48.416;10.066;2023-07-13T00:20:23;7.32;;;3.35;;
31368;SDS011;18004;48.416;10.066;2023-07-13T00:22:52;5.90;;;3.35;;
31368;SDS011;18004;48.416;10.066;2023-07-13T00:25:34;8.13;;;4.65;;
31368;SDS011;18004;48.416;10.066;2023-07-13T00:28:03;10.93;;;4.13;;
31368;SDS011;18004;48.416;10.066;2023-07-13T00:30:29;8.35;;;4.38;;
31368;SDS011;18004;48.416;10.066;2023-07-13T00:33:02;6.72;;;3.92;;
31368;SDS011;18004;48.416;10.066;2023-07-13T00:40:33;8.05;;;3.22;;
31368;SDS011;18004;48.416;10.066;2023-07-13T00:43:52;8.48;;;2.45;;
31368;SDS011;18004;48.416;10.066;2023-07-13T00:48:59;2.38;;;1.58;;
31368;SDS011;18004;48.416;10.066;2023-07-13T01:48:07;3.55;;;1.88;;
31368;SDS011;18004;48.416;10.066;2023-07-13T01:52:01;7.38;;;1.70;;
31368;SDS011;18004;48.416;10.066;2023-07-13T01:54:28;7.28;;;1.48;;
31368;SDS011;18004;48.416;10.066;2023-07-13T01:56:53;6.65;;;1.65;;
31368;SDS011;18004;48.416;10.066;2023-07-13T01:59:19;3.47;;;1.80;;
31368;SDS011;18004;48.416;10.066;2023-07-13T02:01:45;3.70;;;1.58;;
31368;SDS011;18004;48.416;10.066;2023-07-13T02:04:11;3.28;;;1.48;;
31368;SDS011;18004;48.416;10.066;2023-07-13T02:06:36;2.90;;;1.42;;
31368;SDS011;18004;48.416;10.066;2023-07-13T02:09:02;5.35;;;1.92;;
31368;SDS011;18004;48.416;10.066;2023-07-13T02:11:28;4.50;;;2.13;;
31368;SDS011;18004;48.416;10.066;2023-07-13T02:13:58;2.78;;;1.85;;
31368;SDS011;18004;48.416;10.066;2023-07-13T02:17:09;3.42;;;1.65;;
31368;SDS011;18004;48.416;10.066;2023-07-13T02:19:35;2.40;;;1.88;;
31368;SDS011;18004;48.416;10.066;2023-07-13T02:22:04;5.68;;;2.03;;
31368;SDS011;18004;48.416;10.066;2023-07-13T02:24:30;3.22;;;2.15;;
31368;SDS011;18004;48.416;10.066;2023-07-13T02:26:56;3.60;;;2.25;;
31368;SDS011;18004;48.416;10.066;2023-07-13T02:29:22;4.97;;;1.98;;
31368;SDS011;18004;48.416;10.066;2023-07-13T02:31:48;2.90;;;1.42;;
31368;SDS011;18004;48.416;10.066;2023-07-13T02:34:13;10.95;;;1.75;;
31368;SDS011;18004;48.416;10.066;2023-07-13T02:36:39;2.95;;;1.52;;
31368;SDS011;18004;48.416;10.066;2023-07-13T02:39:06;3.35;;;1.40;;
31368;SDS011;18004;48.416;10.066;2023-07-13T02:41:36;2.38;;;1.52;;
31368;SDS011;18004;48.416;10.066;2023-07-13T02:44:02;3.53;;;2.08;;
31368;SDS011;18004;48.416;10.066;2023-07-13T02:46:31;8.88;;;2.05;;
31368;SDS011;18004;48.416;10.066;2023-07-13T02:49:10;2.72;;;1.95;;
31368;SDS011;18004;48.416;10.066;2023-07-13T03:02:38;1.60;;;1.50;;
31368;SDS011;18004;48.416;10.066;2023-07-13T03:05:09;2.22;;;1.35;;
31368;SDS011;18004;48.416;10.066;2023-07-13T03:07:38;1.30;;;1.02;;
31368;SDS011;18004;48.416;10.066;2023-07-13T03:10:05;3.50;;;1.30;;
31368;SDS011;18004;48.416;10.066;2023-07-13T03:12:31;2.83;;;1.00;;
31368;SDS011;18004;48.416;10.066;2023-07-13T03:18:09;4.28;;;0.98;;
31368;SDS011;18004;48.416;10.066;2023-07-13T03:20:36;2.03;;;1.05;;
31368;SDS011;18004;48.416;10.066;2023-07-13T03:23:01;3.10;;;1.30;;
31368;SDS011;18004;48.416;10.066;2023-07-13T03:25:29;4.47;;;1.08;;
31368;SDS011;18004;48.416;10.066;2023-07-13T03:27:54;2.95;;;1.48;;
31368;SDS011;18004;48.416;10.066;2023-07-13T03:30:20;2.30;;;1.30;;
31368;SDS011;18004;48.416;10.066;2023-07-13T03:32:46;3.30;;;1.25;;
31368;SDS011;18004;48.416;10.066;2023-07-13T03:35:12;2.05;;;1.05;;
31368;SDS011;18004;48.416;10.066;2023-07-13T03:37:38;2.63;;;0.95;;
31368;SDS011;18004;48.416;10.066;2023-07-13T03:40:08;2.28;;;1.30;;
31368;SDS011;18004;48.416;10.066;2023-07-13T03:42:35;5.20;;;1.40;;
31368;SDS011;18004;48.416;10.066;2023-07-13T03:45:01;12.68;;;1.70;;
31368;SDS011;18004;48.416;10.066;2023-07-13T03:47:26;1.05;;;0.90;;
31368;SDS011;18004;48.416;10.066;2023-07-13T03:49:52;1.25;;;0.90;;
31368;SDS011;18004;48.416;10.066;2023-07-13T03:52:18;5.45;;;1.55;;
31368;SDS011;18004;48.416;10.066;2023-07-13T03:54:44;4.60;;;1.27;;
31368;SDS011;18004;48.416;10.066;2023-07-13T03:57:10;1.38;;;0.88;;
31368;SDS011;18004;48.416;10.066;2023-07-13T03:59:36;1.67;;;1.02;;
31368;SDS011;18004;48.416;10.066;2023-07-13T04:02:05;1.88;;;0.90;;
31368;SDS011;18004;48.416;10.066;2023-07-13T04:04:31;3.13;;;1.20;;
31368;SDS011;18004;48.416;10.066;2023-07-13T04:06:57;4.43;;;0.93;;
31368;SDS011;18004;48.416;10.066;2023-07-13T04:09:23;1.90;;;0.82;;
31368;SDS011;18004;48.416;10.066;2023-07-13T04:11:49;6.10;;;1.15;;
31368;SDS011;18004;48.416;10.066;2023-07-13T04:14:15;1.20;;;0.90;;
31368;SDS011;18004;48.416;10.066;2023-07-13T04:16:41;5.13;;;0.85;;
31368;SDS011;18004;48.416;10.066;2023-07-13T04:19:09;1.80;;;0.80;;
31368;SDS011;18004;48.416;10.066;2023-07-13T04:21:35;3.25;;;1.55;;
31368;SDS011;18004;48.416;10.066;2023-07-13T04:24:02;4.47;;;1.30;;
31368;SDS011;18004;48.416;10.066;2023-07-13T04:26:29;4.20;;;1.27;;
31368;SDS011;18004;48.416;10.066;2023-07-13T04:28:55;2.42;;;0.85;;
31368;SDS011;18004;48.416;10.066;2023-07-13T04:31:21;1.13;;;0.73;;
31368;SDS011;18004;48.416;10.066;2023-07-13T04:33:47;3.33;;;0.85;;
31368;SDS011;18004;48.416;10.066;2023-07-13T04:36:14;2.75;;;1.35;;
31368;SDS011;18004;48.416;10.066;2023-07-13T04:38:41;4.70;;;1.48;;
31368;SDS011;18004;48.416;10.066;2023-07-13T04:41:07;4.10;;;1.15;;
31368;SDS011;18004;48.416;10.066;2023-07-13T04:43:34;4.47;;;1.10;;
31368;SDS011;18004;48.416;10.066;2023-07-13T04:46:04;3.50;;;1.27;;
31368;SDS011;18004;48.416;10.066;2023-07-13T04:48:32;3.65;;;1.33;;
31368;SDS011;18004;48.416;10.066;2023-07-13T04:50:58;3.28;;;1.30;;
31368;SDS011;18004;48.416;10.066;2023-07-13T04:53:24;4.35;;;1.15;;
31368;SDS011;18004;48.416;10.066;2023-07-13T04:55:51;7.38;;;1.40;;
31368;SDS011;18004;48.416;10.066;2023-07-13T04:58:17;5.78;;;1.35;;
31368;SDS011;18004;48.416;10.066;2023-07-13T05:01:14;4.68;;;1.23;;
31368;SDS011;18004;48.416;10.066;2023-07-13T05:03:57;2.40;;;1.38;;
31368;SDS011;18004;48.416;10.066;2023-07-13T05:06:27;4.55;;;1.48;;
31368;SDS011;18004;48.416;10.066;2023-07-13T05:08:53;2.38;;;1.25;;
31368;SDS011;18004;48.416;10.066;2023-07-13T05:15:42;3.78;;;1.08;;
31368;SDS011;18004;48.416;10.066;2023-07-13T05:18:17;7.38;;;1.60;;
31368;SDS011;18004;48.416;10.066;2023-07-13T06:03:34;3.67;;;1.80;;
31368;SDS011;18004;48.416;10.066;2023-07-13T06:07:27;4.75;;;1.33;;
31368;SDS011;18004;48.416;10.066;2023-07-13T06:29:09;4.25;;;1.65;;
31368;SDS011;18004;48.416;10.066;2023-07-13T06:31:35;5.50;;;1.70;;
31368;SDS011;18004;48.416;10.066;2023-07-13T06:49:12;5.50;;;1.30;;
31368;SDS011;18004;48.416;10.066;2023-07-13T06:55:37;1.10;;;0.52;;
31368;SDS011;18004;48.416;10.066;2023-07-13T06:58:03;1.48;;;0.73;;
31368;SDS011;18004;48.416;10.066;2023-07-13T07:01:13;1.83;;;1.15;;
31368;SDS011;18004;48.416;10.066;2023-07-13T07:03:44;2.47;;;0.65;;
31368;SDS011;18004;48.416;10.066;2023-07-13T07:06:28;1.52;;;0.73;;
31368;SDS011;18004;48.416;10.066;2023-07-13T07:09:10;1.25;;;0.90;;
31368;SDS011;18004;48.416;10.066;2023-07-13T07:11:37;1.35;;;0.60;;
31368;SDS011;18004;48.416;10.066;2023-07-13T07:14:02;2.40;;;0.70;;
31368;SDS011;18004;48.416;10.066;2023-07-13T07:16:31;1.52;;;0.70;;
31368;SDS011;18004;48.416;10.066;2023-07-13T07:18:57;1.92;;;0.65;;
31368;SDS011;18004;48.416;10.066;2023-07-13T07:21:36;1.15;;;1.00;;
31368;SDS011;18004;48.416;10.066;2023-07-13T07:24:12;1.52;;;0.98;;
31368;SDS011;18004;48.416;10.066;2023-07-13T07:26:44;4.32;;;0.90;;
31368;SDS011;18004;48.416;10.066;2023-07-13T07:29:10;2.53;;;1.25;;
31368;SDS011;18004;48.416;10.066;2023-07-13T07:31:45;2.58;;;1.05;;
31368;SDS011;18004;48.416;10.066;2023-07-13T07:34:11;4.82;;;1.40;;
31368;SDS011;18004;48.416;10.066;2023-07-13T07:36:37;2.97;;;0.93;;
31368;SDS011;18004;48.416;10.066;2023-07-13T07:39:03;0.55;;;0.50;;
31368;SDS011;18004;48.416;10.066;2023-07-13T07:41:38;1.45;;;0.82;;
31368;SDS011;18004;48.416;10.066;2023-07-13T07:44:08;4.07;;;0.60;;
31368;SDS011;18004;48.416;10.066;2023-07-13T07:46:37;1.33;;;0.70;;
31368;SDS011;18004;48.416;10.066;2023-07-13T07:49:02;1.02;;;0.60;;
31368;SDS011;18004;48.416;10.066;2023-07-13T07:51:29;2.90;;;0.80;;
31368;SDS011;18004;48.416;10.066;2023-07-13T07:53:55;0.90;;;0.40;;
31368;SDS011;18004;48.416;10.066;2023-07-13T07:56:21;1.98;;;0.70;;
31368;SDS011;18004;48.416;10.066;2023-07-13T07:58:47;2.53;;;0.70;;
31368;SDS011;18004;48.416;10.066;2023-07-13T08:01:13;7.22;;;0.68;;
31368;SDS011;18004;48.416;10.066;2023-07-13T08:03:39;3.85;;;1.15;;
31368;SDS011;18004;48.416;10.066;2023-07-13T08:06:05;2.05;;;1.00;;
31368;SDS011;18004;48.416;10.066;2023-07-13T08:08:34;1.80;;;0.70;;
31368;SDS011;18004;48.416;10.066;2023-07-13T08:11:04;0.63;;;0.52;;
31368;SDS011;18004;48.416;10.066;2023-07-13T08:13:39;1.20;;;0.52;;
31368;SDS011;18004;48.416;10.066;2023-07-13T08:16:06;4.22;;;0.80;;
31368;SDS011;18004;48.416;10.066;2023-07-13T08:18:32;0.60;;;0.60;;
31368;SDS011;18004;48.416;10.066;2023-07-13T08:21:02;2.10;;;0.70;;
31368;SDS011;18004;48.416;10.066;2023-07-13T08:23:35;2.60;;;0.90;;
31368;SDS011;18004;48.416;10.066;2023-07-13T08:26:01;1.20;;;0.60;;
31368;SDS011;18004;48.416;10.066;2023-07-13T08:28:29;2.92;;;0.80;;
31368;SDS011;18004;48.416;10.066;2023-07-13T08:31:05;2.45;;;0.90;;
31368;SDS011;18004;48.416;10.066;2023-07-13T08:33:34;1.00;;;0.60;;
31368;SDS011;18004;48.416;10.066;2023-07-13T08:36:01;0.80;;;0.80;;
31368;SDS011;18004;48.416;10.066;2023-07-13T08:38:30;1.40;;;1.05;;
31368;SDS011;18004;48.416;10.066;2023-07-13T08:41:09;3.53;;;1.05;;
31368;SDS011;18004;48.416;10.066;2023-07-13T08:43:51;0.90;;;0.70;;
31368;SDS011;18004;48.416;10.066;2023-07-13T08:46:48;0.82;;;0.63;;
31368;SDS011;18004;48.416;10.066;2023-07-13T08:53:01;4.22;;;1.10;;
31368;SDS011;18004;48.416;10.066;2023-07-13T08:55:36;3.03;;;1.20;;
31368;SDS011;18004;48.416;10.066;2023-07-13T09:56:05;1.02;;;0.50;;
31368;SDS011;18004;48.416;10.066;2023-07-13T10:00:01;3.58;;;0.93;;
31368;SDS011;18004;48.416;10.066;2023-07-13T11:16:45;0.55;;;0.55;;
31368;SDS011;18004;48.416;10.066;2023-07-13T13:11:33;0.63;;;0.40;;
31368;SDS011;18004;48.416;10.066;2023-07-13T13:42:41;1.05;;;0.40;;
31368;SDS011;18004;48.416;10.066;2023-07-13T14:39:43;1.58;;;0.52;;
31368;SDS011;18004;48.416;10.066;2023-07-13T17:12:33;5.65;;;0.80;;
31368;SDS011;18004;48.416;10.066;2023-07-13T17:15:00;1.95;;;0.68;;
31368;SDS011;18004;48.416;10.066;2023-07-13T17:17:57;1.77;;;0.70;;
31368;SDS011;18004;48.416;10.066;2023-07-13T17:20:48;1.87;;;0.70;;
31368;SDS011;18004;48.416;10.066;2023-07-13T17:26:20;3.60;;;0.70;;
31368;SDS011;18004;48.416;10.066;2023-07-13T17:29:16;0.73;;;0.40;;
31368;SDS011;18004;48.416;10.066;2023-07-13T17:31:59;4.32;;;0.77;;
31368;SDS011;18004;48.416;10.066;2023-07-13T17:34:42;1.02;;;0.55;;
31368;SDS011;18004;48.416;10.066;2023-07-13T17:37:37;2.03;;;0.65;;
31368;SDS011;18004;48.416;10.066;2023-07-13T17:40:13;1.00;;;0.52;;
31368;SDS011;18004;48.416;10.066;2023-07-13T17:42:52;2.50;;;0.73;;
31368;SDS011;18004;48.416;10.066;2023-07-13T17:45:54;4.22;;;0.45;;
31368;SDS011;18004;48.416;10.066;2023-07-13T17:48:37;1.52;;;0.40;;
31368;SDS011;18004;48.416;10.066;2023-07-13T17:51:17;1.15;;;0.68;;
31368;SDS011;18004;48.416;10.066;2023-07-13T17:54:17;10.10;;;0.93;;
31368;SDS011;18004;48.416;10.066;2023-07-13T17:56:46;7.85;;;0.65;;
31368;SDS011;18004;48.416;10.066;2023-07-13T17:59:12;0.93;;;0.60;;
31368;SDS011;18004;48.416;10.066;2023-07-13T18:01:39;2.33;;;0.65;;
31368;SDS011;18004;48.416;10.066;2023-07-13T18:04:13;2.55;;;0.82;;
31368;SDS011;18004;48.416;10.066;2023-07-13T18:06:48;1.48;;;0.57;;
31368;SDS011;18004;48.416;10.066;2023-07-13T18:09:22;3.28;;;0.80;;
31368;SDS011;18004;48.416;10.066;2023-07-13T18:11:51;1.05;;;0.50;;
31368;SDS011;18004;48.416;10.066;2023-07-13T18:14:42;0.43;;;0.40;;
31368;SDS011;18004;48.416;10.066;2023-07-13T18:17:09;0.73;;;0.40;;
31368;SDS011;18004;48.416;10.066;2023-07-13T18:19:45;1.08;;;0.70;;
31368;SDS011;18004;48.416;10.066;2023-07-13T18:22:15;1.15;;;0.50;;
31368;SDS011;18004;48.416;10.066;2023-07-13T18:24:43;0.43;;;0.40;;
31368;SDS011;18004;48.416;10.066;2023-07-13T18:27:10;1.33;;;0.60;;
31368;SDS011;18004;48.416;10.066;2023-07-13T18:29:39;0.90;;;0.43;;
31368;SDS011;18004;48.416;10.066;2023-07-13T18:32:05;2.30;;;0.68;;
31368;SDS011;18004;48.416;10.066;2023-07-13T18:34:35;0.63;;;0.50;;
31368;SDS011;18004;48.416;10.066;2023-07-13T18:37:09;4.13;;;0.63;;
31368;SDS011;18004;48.416;10.066;2023-07-13T18:39:44;0.50;;;0.50;;
31368;SDS011;18004;48.416;10.066;2023-07-13T18:42:20;1.80;;;0.70;;
31368;SDS011;18004;48.416;10.066;2023-07-13T18:45:02;0.60;;;0.50;;
31368;SDS011;18004;48.416;10.066;2023-07-13T18:47:33;2.90;;;0.50;;
31368;SDS011;18004;48.416;10.066;2023-07-13T18:50:04;0.60;;;0.47;;
31368;SDS011;18004;48.416;10.066;2023-07-13T18:52:44;2.95;;;0.50;;
31368;SDS011;18004;48.416;10.066;2023-07-13T18:55:12;2.40;;;0.80;;
31368;SDS011;18004;48.416;10.066;2023-07-13T19:00:24;6.25;;;0.70;;
31368;SDS011;18004;48.416;10.066;2023-07-13T19:03:32;1.02;;;0.52;;
31368;SDS011;18004;48.416;10.066;2023-07-13T19:06:02;1.17;;;0.60;;
31368;SDS011;18004;48.416;10.066;2023-07-13T19:08:33;7.78;;;0.90;;
31368;SDS011;18004;48.416;10.066;2023-07-13T19:11:09;4.45;;;0.45;;
31368;SDS011;18004;48.416;10.066;2023-07-13T19:13:43;1.95;;;0.70;;
31368;SDS011;18004;48.416;10.066;2023-07-13T19:16:10;0.98;;;0.63;;
31368;SDS011;18004;48.416;10.066;2023-07-13T19:18:39;0.95;;;0.60;;
31368;SDS011;18004;48.416;10.066;2023-07-13T19:21:12;2.75;;;0.60;;
31368;SDS011;18004;48.416;10.066;2023-07-13T19:23:54;1.58;;;0.70;;
31368;SDS011;18004;48.416;10.066;2023-07-13T19:26:21;5.10;;;0.90;;
31368;SDS011;18004;48.416;10.066;2023-07-13T19:28:52;2.47;;;0.47;;
31368;SDS011;18004;48.416;10.066;2023-07-13T19:31:24;1.17;;;0.68;;
31368;SDS011;18004;48.416;10.066;2023-07-13T19:33:58;1.48;;;0.55;;
31368;SDS011;18004;48.416;10.066;2023-07-13T19:36:36;2.00;;;0.63;;
31368;SDS011;18004;48.416;10.066;2023-07-13T19:39:04;0.85;;;0.70;;
31368;SDS011;18004;48.416;10.066;2023-07-13T19:41:37;1.08;;;0.57;;
31368;SDS011;18004;48.416;10.066;2023-07-13T19:44:05;1.95;;;0.45;;
31368;SDS011;18004;48.416;10.066;2023-07-13T19:46:35;0.73;;;0.43;;
31368;SDS011;18004;48.416;10.066;2023-07-13T19:49:02;0.52;;;0.50;;
31368;SDS011;18004;48.416;10.066;2023-07-13T19:51:33;0.75;;;0.50;;
31368;SDS011;18004;48.416;10.066;2023-07-13T19:54:10;1.75;;;0.75;;
31368;SDS011;18004;48.416;10.066;2023-07-13T19:56:38;3.97;;;0.95;;
31368;SDS011;18004;48.416;10.066;2023-07-13T20:01:56;3.10;;;0.80;;
31368;SDS011;18004;48.416;10.066;2023-07-13T20:04:46;0.82;;;0.47;;
31368;SDS011;18004;48.416;10.066;2023-07-13T20:07:15;1.30;;;0.80;;
31368;SDS011;18004;48.416;10.066;2023-07-13T20:09:43;2.40;;;0.85;;
31368;SDS011;18004;48.416;10.066;2023-07-13T20:12:15;0.32;;;0.32;;
31368;SDS011;18004;48.416;10.066;2023-07-13T20:14:46;3.28;;;1.10;;
31368;SDS011;18004;48.416;10.066;2023-07-13T20:23:36;2.53;;;0.68;;
31368;SDS011;18004;48.416;10.066;2023-07-13T20:26:04;3.20;;;1.02;;
31368;SDS011;18004;48.416;10.066;2023-07-13T20:28:30;4.10;;;0.90;;
31368;SDS011;18004;48.416;10.066;2023-07-13T20:30:56;0.63;;;0.63;;
31368;SDS011;18004;48.416;10.066;2023-07-13T20:33:27;2.55;;;0.90;;
31368;SDS011;18004;48.416;10.066;2023-07-13T20:35:56;4.20;;;0.55;;
31368;SDS011;18004;48.416;10.066;2023-07-13T20:38:28;2.45;;;0.85;;
31368;SDS011;18004;48.416;10.066;2023-07-13T20:40:58;1.52;;;0.90;;
31368;SDS011;18004;48.416;10.066;2023-07-13T20:43:25;1.15;;;0.63;;
31368;SDS011;18004;48.416;10.066;2023-07-13T20:46:09;2.85;;;0.82;;
31368;SDS011;18004;48.416;10.066;2023-07-13T20:48:48;5.50;;;0.73;;
31368;SDS011;18004;48.416;10.066;2023-07-13T20:51:38;1.98;;;0.80;;
31368;SDS011;18004;48.416;10.066;2023-07-13T20:54:25;1.23;;;0.90;;
31368;SDS011;18004;48.416;10.066;2023-07-13T20:57:36;1.15;;;0.50;;
31368;SDS011;18004;48.416;10.066;2023-07-13T21:00:44;1.58;;;0.70;;
31368;SDS011;18004;48.416;10.066;2023-07-13T21:05:45;0.55;;;0.55;;
31368;SDS011;18004;48.416;10.066;2023-07-13T21:08:16;0.52;;;0.52;;
31368;SDS011;18004;48.416;10.066;2023-07-13T21:10:56;0.85;;;0.60;;
31368;SDS011;18004;48.416;10.066;2023-07-13T21:13:22;3.40;;;0.68;;
31368;SDS011;18004;48.416;10.066;2023-07-13T21:15:48;2.10;;;0.70;;
31368;SDS011;18004;48.416;10.066;2023-07-13T21:18:19;2.28;;;0.70;;
31368;SDS011;18004;48.416;10.066;2023-07-13T21:20:51;1.30;;;0.52;;
31368;SDS011;18004;48.416;10.066;2023-07-13T21:23:23;0.85;;;0.73;;
31368;SDS011;18004;48.416;10.066;2023-07-13T21:25:50;4.18;;;0.82;;
31368;SDS011;18004;48.416;10.066;2023-07-13T21:28:16;2.35;;;0.60;;
31368;SDS011;18004;48.416;10.066;2023-07-13T21:30:48;0.95;;;0.60;;
31368;SDS011;18004;48.416;10.066;2023-07-13T21:33:14;6.80;;;0.70;;
31368;SDS011;18004;48.416;10.066;2023-07-13T21:35:41;1.10;;;0.52;;
31368;SDS011;18004;48.416;10.066;2023-07-13T21:38:15;0.73;;;0.43;;
31368;SDS011;18004;48.416;10.066;2023-07-13T21:41:48;0.40;;;0.40;;
31368;SDS011;18004;48.416;10.066;2023-07-13T21:44:32;1.38;;;0.68;;
31368;SDS011;18004;48.416;10.066;2023-07-13T21:49:50;1.10;;;0.45;;
31368;SDS011;18004;48.416;10.066;2023-07-13T21:56:02;2.53;;;0.70;;
31368;SDS011;18004;48.416;10.066;2023-07-13T21:58:47;1.58;;;0.68;;
31368;SDS011;18004;48.416;10.066;2023-07-13T22:01:17;1.17;;;0.52;;
31368;SDS011;18004;48.416;10.066;2023-07-13T22:04:00;1.83;;;0.70;;
31368;SDS011;18004;48.416;10.066;2023-07-13T22:07:15;0.90;;;0.60;;
31368;SDS011;18004;48.416;10.066;2023-07-13T22:09:41;0.75;;;0.40;;
31368;SDS011;18004;48.416;10.066;2023-07-13T22:12:09;0.98;;;0.55;;
31368;SDS011;18004;48.416;10.066;2023-07-13T22:14:35;2.03;;;0.70;;
31368;SDS011;18004;48.416;10.066;2023-07-13T22:17:01;0.82;;;0.55;;
31368;SDS011;18004;48.416;10.066;2023-07-13T22:19:29;1.17;;;0.90;;
31368;SDS011;18004;48.416;10.066;2023-07-13T22:21:57;1.42;;;0.68;;
31368;SDS011;18004;48.416;10.066;2023-07-13T22:24:23;0.95;;;0.60;;
31368;SDS011;18004;48.416;10.066;2023-07-13T22:26:50;6.47;;;0.80;;
31368;SDS011;18004;48.416;10.066;2023-07-13T22:29:17;1.10;;;0.80;;
31368;SDS011;18004;48.416;10.066;2023-07-13T22:32:10;5.10;;;0.85;;
31368;SDS011;18004;48.416;10.066;2023-07-13T22:34:36;1.85;;;0.80;;
31368;SDS011;18004;48.416;10.066;2023-07-13T22:37:02;2.33;;;0.70;;
31368;SDS011;18004;48.416;10.066;2023-07-13T22:39:31;0.95;;;0.52;;
31368;SDS011;18004;48.416;10.066;2023-07-13T22:42:00;1.20;;;0.80;;
31368;SDS011;18004;48.416;10.066;2023-07-13T22:44:29;0.85;;;0.52;;
31368;SDS011;18004;48.416;10.066;2023-07-13T22:46:55;0.57;;;0.57;;
31368;SDS011;18004;48.416;10.066;2023-07-13T22:49:34;1.48;;;0.70;;
31368;SDS011;18004;48.416;10.066;2023-07-13T22:52:25;2.08;;;0.80;;
31368;SDS011;18004;48.416;10.066;2023-07-13T22:55:15;4.40;;;0.80;;
31368;SDS011;18004;48.416;10.066;2023-07-13T22:58:14;0.60;;;0.50;;
31368;SDS011;18004;48.416;10.066;2023-07-13T23:04:37;0.52;;;0.50;;
31368;SDS011;18004;48.416;10.066;2023-07-13T23:10:47;1.73;;;0.70;;
31368;SDS011;18004;48.416;10.066;2023-07-13T23:16:44;0.63;;;0.57;;
31368;SDS011;18004;48.416;10.066;2023-07-13T23:22:37;0.70;;;0.60;;
31368;SDS011;18004;48.416;10.066;2023-07-13T23:25:50;1.30;;;0.85;;
31368;SDS011;18004;48.416;10.066;2023-07-13T23:31:57;1.25;;;0.55;;
31368;SDS011;18004;48.416;10.066;2023-07-13T23:34:53;0.80;;;0.60;;
31368;SDS011;18004;48.416;10.066;2023-07-13T23:37:28;3.95;;;0.70;;
31368;SDS011;18004;48.416;10.066;2023-07-13T23:47:09;0.95;;;0.65;;
